Time,TemperatureF,DewpointF,PressureIn,WindDirection,WindDirectionDegrees,WindSpeedMPH,WindSpeedGustMPH,Humidity,HourlyPrecipIn,Conditions,Clouds,dailyrainin,SoftwareType,DateUTC
2013-03-18 00:00:00,35.9,34.9,30.19,NNW,347,0.1,1.1,96,0.08,RA,,0.00,WeatherDisplay:10.37,2013-03-18 04:00:00,
2013-03-18 00:01:00,35.9,34.9,30.20,NNW,347,0.1,1.1,96,0.08,RA,,0.00,WeatherDisplay:10.37,2013-03-18 04:01:00,
2013-03-18 00:05:00,35.8,34.8,30.19,ENE,63,0.1,1.1,96,0.07,RA,,0.00,WeatherDisplay:10.37,2013-03-18 04:05:00,
2013-03-18 00:08:00,35.8,34.7,30.19,ENE,75,0.0,0.0,96,0.00,RA,,0.00,WeatherDisplay:10.37,2013-03-18 04:08:00,
2013-03-18 00:14:00,35.6,34.3,30.19,East,98,0.0,3.5,95,0.06,RA,,0.01,WeatherDisplay:10.37,2013-03-18 04:14:00,
2013-03-18 00:19:00,35.5,34.2,30.19,East,91,0.3,2.3,95,0.06,-RA,,0.01,WeatherDisplay:10.37,2013-03-18 04:19:00,
2013-03-18 00:24:00,35.5,34.2,30.19,East,82,0.0,0.0,95,0.05,-RA,,0.01,WeatherDisplay:10.37,2013-03-18 04:24:00,
2013-03-18 00:29:00,35.6,34.3,30.20,South,190,2.4,5.0,95,0.05,-RA,,0.01,WeatherDisplay:10.37,2013-03-18 04:29:00,
2013-03-18 00:34:00,35.5,34.2,30.19,East,87,0.9,2.3,95,0.04,-RA,,0.01,WeatherDisplay:10.37,2013-03-18 04:34:00,
2013-03-18 00:39:00,35.5,34.2,30.20,East,83,0.0,1.1,95,0.04,-RA,,0.02,WeatherDisplay:10.37,2013-03-18 04:39:00,
2013-03-18 00:44:00,35.6,34.3,30.19,East,84,0.0,0.0,95,0.04,-RA,,0.02,WeatherDisplay:10.37,2013-03-18 04:44:00,
2013-03-18 00:49:00,35.6,34.3,30.19,ESE,108,0.2,1.1,95,0.03,-RA,,0.02,WeatherDisplay:10.37,2013-03-18 04:49:00,
2013-03-18 00:54:00,35.5,34.2,30.19,ESE,108,0.0,0.0,95,0.03,-RA,,0.02,WeatherDisplay:10.37,2013-03-18 04:54:00,
2013-03-18 00:59:00,35.3,34.0,30.19,ENE,70,0.0,1.1,95,0.03,-RA,,0.03,WeatherDisplay:10.37,2013-03-18 04:59:00,
2013-03-18 01:04:00,35.4,34.1,30.19,ENE,69,0.1,1.1,95,0.03,-RA,,0.03,WeatherDisplay:10.37,2013-03-18 05:04:00,
2013-03-18 01:09:00,35.4,34.1,30.19,East,92,0.9,2.3,95,0.02,-RA,,0.03,WeatherDisplay:10.37,2013-03-18 05:09:00,
2013-03-18 01:14:00,35.4,34.1,30.19,East,101,0.0,1.1,95,0.02,-RA,,0.03,WeatherDisplay:10.37,2013-03-18 05:14:00,
2013-03-18 01:19:00,35.4,34.1,30.18,ESE,115,0.0,1.1,95,0.02,-RA,,0.03,WeatherDisplay:10.37,2013-03-18 05:19:00,
2013-03-18 01:24:00,35.3,34.0,30.18,ESE,105,0.5,3.5,95,0.02,-RA,,0.03,WeatherDisplay:10.37,2013-03-18 05:24:00,
2013-03-18 01:29:00,35.3,34.0,30.18,East,92,0.7,1.1,95,0.02,-RA,,0.03,WeatherDisplay:10.37,2013-03-18 05:29:00,
2013-03-18 01:34:00,35.3,34.0,30.18,East,80,0.4,1.1,95,0.02,-RA,,0.03,WeatherDisplay:10.37,2013-03-18 05:34:00,
2013-03-18 01:39:00,35.3,34.0,30.18,WSW,255,0.2,1.1,95,0.01,-RA,,0.03,WeatherDisplay:10.37,2013-03-18 05:39:00,
2013-03-18 01:44:00,35.3,34.0,30.18,NNE,23,0.0,0.0,95,0.01,-RA,,0.03,WeatherDisplay:10.37,2013-03-18 05:44:00,
2013-03-18 01:49:00,35.4,34.1,30.18,NNE,23,0.0,1.1,95,0.01,-RA,,0.03,WeatherDisplay:10.37,2013-03-18 05:49:00,
2013-03-18 01:54:00,35.3,34.0,30.18,NE,34,0.0,1.1,95,0.01,-RA,,0.03,WeatherDisplay:10.37,2013-03-18 05:54:00,
2013-03-18 01:59:00,35.3,34.0,30.18,NE,46,0.1,1.1,95,0.00,-RA,,0.03,WeatherDisplay:10.37,2013-03-18 05:59:00,
2013-03-18 02:05:00,35.2,33.9,30.18,East,98,0.0,0.0,95,0.00,OVC,,0.03,WeatherDisplay:10.37,2013-03-18 06:05:00,
2013-03-18 02:10:00,35.2,34.2,30.18,East,96,0.0,0.0,96,0.00,OVC,,0.03,WeatherDisplay:10.37,2013-03-18 06:10:00,
2013-03-18 02:15:00,35.2,34.2,30.18,East,96,0.0,0.0,96,0.00,OVC,,0.04,WeatherDisplay:10.37,2013-03-18 06:15:00,
2013-03-18 02:20:00,35.2,34.2,30.18,East,94,0.8,2.3,96,0.01,RA,,0.04,WeatherDisplay:10.37,2013-03-18 06:20:00,
2013-03-18 02:25:00,35.2,34.2,30.19,ENE,72,0.5,2.3,96,0.01,RA,,0.04,WeatherDisplay:10.37,2013-03-18 06:25:00,
2013-03-18 02:30:00,35.1,34.1,30.18,East,83,0.0,3.5,96,0.01,RA,,0.04,WeatherDisplay:10.37,2013-03-18 06:30:00,
2013-03-18 02:35:00,35.1,34.1,30.19,East,90,0.0,0.0,96,0.01,RA,,0.04,WeatherDisplay:10.37,2013-03-18 06:35:00,
2013-03-18 02:40:00,35.1,34.1,30.19,East,83,0.1,2.3,96,0.01,RA,,0.04,WeatherDisplay:10.37,2013-03-18 06:40:00,
2013-03-18 02:45:00,35.1,34.1,30.19,East,85,0.0,0.0,96,0.02,RA,,0.05,WeatherDisplay:10.37,2013-03-18 06:45:00,
2013-03-18 02:50:00,35.1,34.1,30.19,East,89,0.0,0.0,96,0.02,RA,,0.05,WeatherDisplay:10.37,2013-03-18 06:50:00,
2013-03-18 02:55:00,35.0,34.0,30.19,East,83,0.0,1.0,96,0.02,RA,,0.05,WeatherDisplay:10.37,2013-03-18 06:55:00,
2013-03-18 03:00:00,35.0,34.0,30.18,East,85,0.9,1.1,96,0.02,RA,,0.05,WeatherDisplay:10.37,2013-03-18 07:00:00,
2013-03-18 03:05:00,35.0,34.0,30.18,East,85,0.0,0.0,96,0.02,RA,,0.05,WeatherDisplay:10.37,2013-03-18 07:05:00,
2013-03-18 03:10:00,35.0,34.0,30.18,East,85,0.0,1.1,96,0.02,RA,,0.05,WeatherDisplay:10.37,2013-03-18 07:10:00,
2013-03-18 03:15:00,35.1,34.1,30.18,East,84,0.0,0.0,96,0.02,OVC,,0.05,WeatherDisplay:10.37,2013-03-18 07:15:00,
2013-03-18 03:20:00,35.0,34.0,30.18,East,84,0.4,1.1,96,0.01,OVC,,0.05,WeatherDisplay:10.37,2013-03-18 07:20:00,
2013-03-18 03:26:00,34.8,33.8,30.18,East,82,0.0,1.1,96,0.02,RA,,0.06,WeatherDisplay:10.37,2013-03-18 07:26:00,
2013-03-18 03:31:00,34.6,33.6,30.18,East,82,0.0,0.0,96,0.02,RA,,0.06,WeatherDisplay:10.37,2013-03-18 07:31:00,
2013-03-18 03:37:00,34.5,33.5,30.18,East,89,1.3,2.3,96,0.02,RA,,0.06,WeatherDisplay:10.37,2013-03-18 07:37:00,
2013-03-18 03:42:00,34.3,33.3,30.18,East,89,0.0,0.0,96,0.02,RA,,0.06,WeatherDisplay:10.37,2013-03-18 07:42:00,
2013-03-18 03:47:00,34.3,33.3,30.18,East,89,0.0,0.0,96,0.01,RA,,0.06,WeatherDisplay:10.37,2013-03-18 07:47:00,
2013-03-18 03:52:00,34.2,33.2,30.17,East,94,0.7,2.3,96,0.01,OVC,,0.06,WeatherDisplay:10.37,2013-03-18 07:52:00,
2013-03-18 03:58:00,34.1,33.1,30.17,East,88,0.0,0.0,96,0.00,OVC,,0.06,WeatherDisplay:10.37,2013-03-18 07:58:00,
2013-03-18 04:03:00,34.1,33.1,30.17,East,87,0.0,0.0,96,0.00,OVC,,0.06,WeatherDisplay:10.37,2013-03-18 08:03:00,
2013-03-18 04:08:00,34.0,33.0,30.18,East,87,0.0,0.0,96,0.00,-RA,,0.06,WeatherDisplay:10.37,2013-03-18 08:08:00,
2013-03-18 04:13:00,34.0,33.2,30.18,ENE,74,0.0,0.0,97,0.00,-RA,,0.06,WeatherDisplay:10.37,2013-03-18 08:13:00,
2013-03-18 04:18:00,34.0,32.9,30.17,ENE,73,0.0,0.0,96,0.01,-RA,,0.07,WeatherDisplay:10.37,2013-03-18 08:18:00,
2013-03-18 04:23:00,33.9,32.8,30.18,East,95,0.0,0.0,96,0.01,-RA,,0.07,WeatherDisplay:10.37,2013-03-18 08:23:00,
2013-03-18 04:28:00,33.7,32.7,30.18,ESE,108,0.0,0.0,96,0.00,-RA,,0.07,WeatherDisplay:10.37,2013-03-18 08:28:00,
2013-03-18 04:33:00,33.7,32.7,30.18,ESE,109,0.0,0.0,96,0.00,-RA,,0.07,WeatherDisplay:10.37,2013-03-18 08:33:00,
2013-03-18 04:38:00,33.6,32.6,30.18,ESE,108,0.0,0.0,96,0.00,-RA,,0.07,WeatherDisplay:10.37,2013-03-18 08:38:00,
2013-03-18 04:43:00,33.6,32.6,30.18,ESE,108,0.0,0.0,96,0.00,-RA,,0.07,WeatherDisplay:10.37,2013-03-18 08:43:00,
2013-03-18 04:48:00,33.6,32.8,30.18,ESE,108,0.0,0.0,97,0.00,-RA,,0.07,WeatherDisplay:10.37,2013-03-18 08:48:00,
2013-03-18 04:53:00,33.5,32.5,30.18,East,98,0.0,0.0,96,0.00,-RA,,0.07,WeatherDisplay:10.37,2013-03-18 08:53:00,
2013-03-18 04:58:00,33.6,32.8,30.18,East,83,0.0,0.0,97,0.00,-RA,,0.07,WeatherDisplay:10.37,2013-03-18 08:58:00,
2013-03-18 05:03:00,33.5,32.7,30.18,East,82,0.0,0.0,97,0.00,-RA,,0.07,WeatherDisplay:10.37,2013-03-18 09:03:00,
2013-03-18 05:08:00,33.4,32.4,30.18,East,85,0.0,0.0,96,0.00,-RA,,0.07,WeatherDisplay:10.37,2013-03-18 09:08:00,
2013-03-18 05:13:00,33.3,32.3,30.18,East,95,0.0,0.0,96,0.00,-RA,,0.07,WeatherDisplay:10.37,2013-03-18 09:13:00,
2013-03-18 05:18:00,33.3,32.3,30.18,East,94,0.0,0.0,96,0.00,OVC,,0.07,WeatherDisplay:10.37,2013-03-18 09:18:00,
2013-03-18 05:23:00,33.2,32.2,30.18,East,98,0.0,0.0,96,0.00,OVC,,0.07,WeatherDisplay:10.37,2013-03-18 09:23:00,
2013-03-18 05:28:00,33.1,32.1,30.18,East,79,0.0,0.0,96,0.00,OVC,,0.07,WeatherDisplay:10.37,2013-03-18 09:28:00,
2013-03-18 05:33:00,33.2,32.2,30.18,NE,51,1.0,0.0,96,0.00,OVC,,0.07,WeatherDisplay:10.37,2013-03-18 09:33:00,
2013-03-18 05:38:00,33.1,32.0,30.18,ENE,72,0.0,0.0,96,0.00,OVC,,0.07,WeatherDisplay:10.37,2013-03-18 09:38:00,
2013-03-18 05:43:00,33.1,32.1,30.19,ENE,71,0.0,0.0,96,0.00,OVC,,0.07,WeatherDisplay:10.37,2013-03-18 09:43:00,
2013-03-18 05:48:00,33.1,32.1,30.18,ENE,69,0.0,0.0,96,0.00,OVC,,0.07,WeatherDisplay:10.37,2013-03-18 09:48:00,
2013-03-18 05:53:00,33.1,32.1,30.19,East,89,0.0,0.0,96,0.00,OVC,,0.07,WeatherDisplay:10.37,2013-03-18 09:53:00,
2013-03-18 05:58:00,33.1,32.1,30.19,East,96,0.0,0.0,96,0.00,OVC,,0.07,WeatherDisplay:10.37,2013-03-18 09:58:00,
2013-03-18 06:03:00,33.1,32.1,30.19,NE,56,0.0,0.0,96,0.00,OVC,,0.07,WeatherDisplay:10.37,2013-03-18 10:03:00,
2013-03-18 06:09:00,33.1,32.1,30.19,ESE,103,0.7,2.3,96,0.00,OVC,,0.07,WeatherDisplay:10.37,2013-03-18 10:09:00,
2013-03-18 06:14:00,33.1,32.1,30.19,ESE,104,0.0,0.0,96,0.00,OVC,,0.07,WeatherDisplay:10.37,2013-03-18 10:14:00,
2013-03-18 06:19:00,33.1,32.1,30.19,East,87,0.2,1.1,96,0.00,OVC,,0.07,WeatherDisplay:10.37,2013-03-18 10:19:00,
2013-03-18 06:24:00,33.0,32.0,30.19,East,80,0.3,1.1,96,0.00,OVC,,0.07,WeatherDisplay:10.37,2013-03-18 10:24:00,
2013-03-18 06:29:00,32.9,31.9,30.19,East,87,0.1,1.1,96,0.00,OVC,,0.07,WeatherDisplay:10.37,2013-03-18 10:29:00,
2013-03-18 06:34:00,32.9,31.9,30.20,SSW,212,0.0,1.1,96,0.01,RA,,0.08,WeatherDisplay:10.37,2013-03-18 10:34:00,
2013-03-18 06:39:00,32.9,31.9,30.20,ESE,103,0.0,1.1,96,0.01,RA,,0.08,WeatherDisplay:10.37,2013-03-18 10:39:00,
2013-03-18 06:44:00,32.8,31.8,30.20,SE,142,0.0,0.0,96,0.01,RA,,0.08,WeatherDisplay:10.37,2013-03-18 10:44:00,
2013-03-18 06:49:00,32.8,31.8,30.20,ESE,114,0.7,1.1,96,0.01,RA,,0.08,WeatherDisplay:10.37,2013-03-18 10:49:00,
2013-03-18 06:54:00,32.7,31.7,30.20,East,86,1.2,2.3,96,0.01,RA,,0.08,WeatherDisplay:10.37,2013-03-18 10:54:00,
2013-03-18 06:59:00,32.7,31.7,30.20,East,87,0.0,0.0,96,0.01,RA,,0.08,WeatherDisplay:10.37,2013-03-18 10:59:00,
2013-03-18 07:04:00,32.8,31.8,30.21,East,87,0.0,0.0,96,0.01,-DZ,,0.08,WeatherDisplay:10.37,2013-03-18 11:04:00,
2013-03-18 07:10:00,32.7,31.7,30.21,East,95,0.1,1.1,96,0.01,-DZ,,0.08,WeatherDisplay:10.37,2013-03-18 11:10:00,
2013-03-18 07:15:00,32.6,31.6,30.21,East,90,0.1,2.3,96,0.01,-DZ,,0.08,WeatherDisplay:10.37,2013-03-18 11:15:00,
2013-03-18 07:20:00,32.5,31.5,30.21,East,101,0.7,3.5,96,0.01,-DZ,,0.08,WeatherDisplay:10.37,2013-03-18 11:20:00,
2013-03-18 07:25:00,32.5,31.5,30.20,East,101,0.7,3.5,96,0.01,-DZ,,0.08,WeatherDisplay:10.37,2013-03-18 11:25:00,
2013-03-18 07:30:00,32.5,31.5,30.20,East,100,0.0,1.1,96,0.01,-DZ,,0.08,WeatherDisplay:10.37,2013-03-18 11:30:00,
2013-03-18 07:35:00,32.5,31.5,30.20,East,79,1.2,3.5,96,0.00,-DZ,,0.08,WeatherDisplay:10.37,2013-03-18 11:35:00,
2013-03-18 07:40:00,32.4,31.4,30.20,ESE,107,0.2,2.3,96,0.00,-DZ,,0.08,WeatherDisplay:10.37,2013-03-18 11:40:00,
2013-03-18 07:45:00,32.4,31.4,30.20,East,91,0.5,1.1,96,0.00,-DZ,,0.08,WeatherDisplay:10.37,2013-03-18 11:45:00,
2013-03-18 07:50:00,32.3,31.3,30.20,ENE,75,0.1,1.1,96,0.00,-DZ,,0.08,WeatherDisplay:10.37,2013-03-18 11:50:00,
2013-03-18 07:55:00,32.3,31.3,30.21,East,79,0.7,2.3,96,0.00,-DZ,,0.08,WeatherDisplay:10.37,2013-03-18 11:55:00,
2013-03-18 08:00:00,32.3,31.3,30.21,NNE,33,0.8,2.0,96,0.00,OVC,,0.08,WeatherDisplay:10.37,2013-03-18 12:00:00,
2013-03-18 08:05:00,32.3,31.3,30.20,East,84,2.0,4.0,96,0.00,OVC,,0.08,WeatherDisplay:10.37,2013-03-18 12:05:00,
2013-03-18 08:10:00,32.2,31.2,30.19,ESE,113,0.1,1.1,96,0.00,OVC,,0.08,WeatherDisplay:10.37,2013-03-18 12:10:00,
2013-03-18 08:15:00,32.2,31.2,30.19,ESE,119,0.0,1.0,96,0.00,OVC,,0.08,WeatherDisplay:10.37,2013-03-18 12:15:00,
2013-03-18 08:20:00,32.2,31.2,30.19,East,81,0.6,3.5,96,0.00,-DZ,,0.08,WeatherDisplay:10.37,2013-03-18 12:20:00,
2013-03-18 08:25:00,32.1,31.1,30.19,ESE,105,0.5,1.1,96,0.00,-DZ,,0.08,WeatherDisplay:10.37,2013-03-18 12:25:00,
2013-03-18 08:30:00,32.0,30.7,30.19,East,83,0.5,2.3,95,0.00,-DZ,,0.08,WeatherDisplay:10.37,2013-03-18 12:30:00,
2013-03-18 08:35:00,32.0,31.0,30.19,East,82,1.1,2.3,96,0.00,-DZ,,0.08,WeatherDisplay:10.37,2013-03-18 12:35:00,
2013-03-18 08:40:00,32.1,31.1,30.19,East,84,0.0,0.0,96,0.00,-DZ,,0.08,WeatherDisplay:10.37,2013-03-18 12:40:00,
2013-03-18 08:45:00,32.2,31.2,30.19,WNW,302,0.0,0.0,96,0.00,-DZ,,0.08,WeatherDisplay:10.37,2013-03-18 12:45:00,
2013-03-18 08:50:00,32.2,31.2,30.20,ESE,117,0.0,0.0,96,0.00,-DZ,,0.08,WeatherDisplay:10.37,2013-03-18 12:50:00,
2013-03-18 08:55:00,32.4,31.4,30.20,ESE,117,0.0,0.0,96,0.00,-DZ,,0.08,WeatherDisplay:10.37,2013-03-18 12:55:00,
2013-03-18 09:00:00,32.5,31.5,30.20,ESE,117,0.0,0.0,96,0.00,-DZ,,0.08,WeatherDisplay:10.37,2013-03-18 13:00:00,
2013-03-18 09:05:00,32.4,31.4,30.20,East,86,0.3,1.1,96,0.00,-DZ,,0.08,WeatherDisplay:10.37,2013-03-18 13:05:00,
2013-03-18 09:10:00,32.3,31.3,30.20,ENE,77,0.0,1.1,96,0.00,-DZ,,0.08,WeatherDisplay:10.37,2013-03-18 13:10:00,
2013-03-18 09:15:00,32.2,31.2,30.20,East,83,0.7,2.3,96,0.00,-DZ,,0.08,WeatherDisplay:10.37,2013-03-18 13:15:00,
2013-03-18 09:20:00,32.1,31.1,30.19,ENE,66,0.2,2.3,96,0.00,-DZ,,0.08,WeatherDisplay:10.37,2013-03-18 13:20:00,
2013-03-18 09:25:00,32.1,31.1,30.19,East,82,0.0,1.1,96,0.00,-DZ,,0.08,WeatherDisplay:10.37,2013-03-18 13:25:00,
2013-03-18 09:31:00,32.1,31.1,30.19,East,89,0.1,2.3,96,0.00,-DZ,,0.08,WeatherDisplay:10.37,2013-03-18 13:31:00,
2013-03-18 09:36:00,32.2,31.2,30.19,East,84,0.0,1.1,96,0.00,-DZ,,0.08,WeatherDisplay:10.37,2013-03-18 13:36:00,
2013-03-18 09:41:00,32.1,31.1,30.19,ESE,105,1.0,3.5,96,0.01,-DZ,,0.09,WeatherDisplay:10.37,2013-03-18 13:41:00,
2013-03-18 09:46:00,32.0,31.0,30.19,East,89,0.4,1.1,96,0.01,-DZ,,0.09,WeatherDisplay:10.37,2013-03-18 13:46:00,
2013-03-18 09:51:00,32.1,31.1,30.18,East,91,0.6,2.3,96,0.01,-DZ,,0.09,WeatherDisplay:10.37,2013-03-18 13:51:00,
2013-03-18 09:57:00,32.2,31.2,30.18,ENE,60,0.0,0.0,96,0.01,-DZ,,0.09,WeatherDisplay:10.37,2013-03-18 13:57:00,
2013-03-18 10:02:00,32.4,31.4,30.18,ESE,102,0.2,1.1,96,0.01,-DZ,,0.09,WeatherDisplay:10.37,2013-03-18 14:02:00,
2013-03-18 10:07:00,32.4,31.4,30.18,SSE,159,0.0,0.0,96,0.01,-DZ,,0.09,WeatherDisplay:10.37,2013-03-18 14:07:00,
2013-03-18 10:13:00,32.4,31.4,30.17,SSE,157,0.0,0.0,96,0.00,-DZ,,0.09,WeatherDisplay:10.37,2013-03-18 14:13:00,
2013-03-18 10:18:00,32.6,31.8,30.17,SE,143,0.0,0.0,97,0.00,-RA,,0.09,WeatherDisplay:10.37,2013-03-18 14:18:00,
2013-03-18 10:23:00,32.5,31.5,30.17,ESE,116,0.0,0.0,96,0.00,-RA,,0.09,WeatherDisplay:10.37,2013-03-18 14:23:00,
2013-03-18 10:28:00,32.3,31.3,30.17,East,86,0.6,2.3,96,0.01,-RA,,0.09,WeatherDisplay:10.37,2013-03-18 14:28:00,
2013-03-18 10:33:00,32.3,31.3,30.17,East,82,0.9,2.3,96,0.01,-RA,,0.09,WeatherDisplay:10.37,2013-03-18 14:33:00,
2013-03-18 10:38:00,32.2,31.2,30.17,ESE,117,1.5,2.3,96,0.01,-RA,,0.10,WeatherDisplay:10.37,2013-03-18 14:38:00,
2013-03-18 10:43:00,32.3,31.3,30.16,NE,36,1.7,3.5,96,0.01,-RA,,0.10,WeatherDisplay:10.37,2013-03-18 14:43:00,
2013-03-18 10:48:00,32.4,31.4,30.17,East,85,0.0,1.1,96,0.01,-RA,,0.10,WeatherDisplay:10.37,2013-03-18 14:48:00,
2013-03-18 10:53:00,32.5,31.5,30.16,East,88,0.0,1.1,96,0.01,-DZ,,0.10,WeatherDisplay:10.37,2013-03-18 14:53:00,
2013-03-18 10:58:00,32.5,31.5,30.16,East,86,0.1,1.1,96,0.01,-DZ,,0.10,WeatherDisplay:10.37,2013-03-18 14:58:00,
2013-03-18 11:03:00,32.5,31.5,30.16,East,89,0.4,2.3,96,0.01,-DZ,,0.10,WeatherDisplay:10.37,2013-03-18 15:03:00,
2013-03-18 11:08:00,32.4,31.4,30.17,ESE,108,0.0,1.1,96,0.01,OVC,,0.10,WeatherDisplay:10.37,2013-03-18 15:08:00,
2013-03-18 11:13:00,32.7,31.7,30.17,East,97,0.3,1.1,96,0.01,OVC,,0.10,WeatherDisplay:10.37,2013-03-18 15:13:00,
2013-03-18 11:18:00,32.7,31.7,30.17,East,97,0.0,0.0,96,0.01,OVC,,0.10,WeatherDisplay:10.37,2013-03-18 15:18:00,
2013-03-18 11:23:00,32.6,31.6,30.17,ENE,78,0.0,1.1,96,0.01,OVC,,0.10,WeatherDisplay:10.37,2013-03-18 15:23:00,
2013-03-18 11:28:00,32.8,31.8,30.17,SE,127,0.0,0.0,96,0.01,OVC,,0.10,WeatherDisplay:10.37,2013-03-18 15:28:00,
2013-03-18 11:33:00,32.7,31.7,30.16,ENE,67,0.0,0.0,96,0.01,OVC,,0.10,WeatherDisplay:10.37,2013-03-18 15:33:00,
2013-03-18 11:38:00,32.8,31.8,30.17,ENE,70,0.0,0.0,96,0.00,OVC,,0.10,WeatherDisplay:10.37,2013-03-18 15:38:00,
2013-03-18 11:43:00,32.9,31.9,30.17,East,98,0.0,0.0,96,0.01,RA,,0.11,WeatherDisplay:10.37,2013-03-18 15:43:00,
2013-03-18 11:48:00,32.7,31.4,30.16,East,90,0.5,1.1,95,0.01,RA,,0.11,WeatherDisplay:10.37,2013-03-18 15:48:00,
2013-03-18 11:53:00,32.8,31.8,30.15,East,83,0.4,1.1,96,0.01,RA,,0.11,WeatherDisplay:10.37,2013-03-18 15:53:00,
2013-03-18 11:58:00,32.7,31.7,30.14,East,101,0.1,1.1,96,0.01,RA,,0.11,WeatherDisplay:10.37,2013-03-18 15:58:00,
2013-03-18 12:03:00,32.9,31.9,30.15,North,349,0.6,2.3,96,0.01,RA,,0.11,WeatherDisplay:10.37,2013-03-18 16:03:00,
2013-03-18 12:08:00,33.0,32.0,30.14,ESE,104,0.7,1.1,96,0.01,-DZ,,0.11,WeatherDisplay:10.37,2013-03-18 16:08:00,
2013-03-18 12:13:00,33.2,32.2,30.14,ENE,59,0.0,1.0,96,0.01,-DZ,,0.11,WeatherDisplay:10.37,2013-03-18 16:13:00,
2013-03-18 12:18:00,33.2,32.2,30.13,ESE,120,0.0,0.0,96,0.01,-DZ,,0.11,WeatherDisplay:10.37,2013-03-18 16:18:00,
2013-03-18 12:23:00,33.5,32.5,30.13,East,79,0.2,1.1,96,0.01,-DZ,,0.11,WeatherDisplay:10.37,2013-03-18 16:23:00,
2013-03-18 12:28:00,33.3,32.0,30.13,ESE,107,0.0,0.0,95,0.01,-DZ,,0.11,WeatherDisplay:10.37,2013-03-18 16:28:00,
2013-03-18 12:33:00,33.5,32.5,30.12,ENE,61,0.0,1.1,96,0.01,-DZ,,0.11,WeatherDisplay:10.37,2013-03-18 16:33:00,
2013-03-18 12:38:00,33.6,32.6,30.12,ESE,104,0.8,2.3,96,0.01,-DZ,,0.11,WeatherDisplay:10.37,2013-03-18 16:38:00,
2013-03-18 12:43:00,33.4,32.1,30.13,SE,136,0.0,0.0,95,0.00,-DZ,,0.11,WeatherDisplay:10.37,2013-03-18 16:43:00,
2013-03-18 12:48:00,33.6,32.3,30.12,SE,127,0.0,0.0,95,0.00,-DZ,,0.11,WeatherDisplay:10.37,2013-03-18 16:48:00,
2013-03-18 12:53:00,33.7,32.4,30.11,NE,56,0.0,1.1,95,0.00,-DZ,,0.11,WeatherDisplay:10.37,2013-03-18 16:53:00,
2013-03-18 12:58:00,33.4,32.1,30.11,SE,136,0.0,1.1,95,0.00,-DZ,,0.11,WeatherDisplay:10.37,2013-03-18 16:58:00,
2013-03-18 13:03:00,33.7,32.4,30.11,East,79,1.1,2.3,95,0.00,-DZ,,0.11,WeatherDisplay:10.37,2013-03-18 17:03:00,
2013-03-18 13:08:00,33.5,32.2,30.11,NE,53,0.0,1.1,95,0.00,OVC,,0.11,WeatherDisplay:10.37,2013-03-18 17:08:00,
2013-03-18 13:13:00,33.7,32.4,30.10,ENE,77,0.1,1.1,95,0.00,OVC,,0.11,WeatherDisplay:10.37,2013-03-18 17:13:00,
2013-03-18 13:18:00,33.6,32.3,30.10,WNW,291,0.2,1.1,95,0.00,OVC,,0.11,WeatherDisplay:10.37,2013-03-18 17:18:00,
2013-03-18 13:24:00,34.0,33.0,30.10,WNW,291,0.0,0.0,96,0.00,OVC,,0.11,WeatherDisplay:10.37,2013-03-18 17:24:00,
2013-03-18 13:29:00,34.1,33.1,30.10,NNW,335,0.0,1.1,96,0.00,OVC,,0.11,WeatherDisplay:10.37,2013-03-18 17:29:00,
2013-03-18 13:34:00,34.0,32.7,30.09,SSW,211,0.0,0.0,95,0.00,OVC,,0.11,WeatherDisplay:10.37,2013-03-18 17:34:00,
2013-03-18 13:39:00,34.1,32.8,30.10,SSW,211,0.0,1.1,95,0.00,OVC,,0.11,WeatherDisplay:10.37,2013-03-18 17:39:00,
2013-03-18 13:44:00,33.9,32.6,30.10,North,1,0.6,1.1,95,0.00,OVC,,0.11,WeatherDisplay:10.37,2013-03-18 17:44:00,
2013-03-18 13:49:00,34.0,32.7,30.10,NNW,335,0.0,0.0,95,0.00,-DZ,,0.11,WeatherDisplay:10.37,2013-03-18 17:49:00,
2013-03-18 13:54:00,34.2,33.2,30.10,NNW,335,0.0,1.0,96,0.00,-DZ,,0.11,WeatherDisplay:10.37,2013-03-18 17:54:00,
2013-03-18 13:59:00,34.3,33.3,30.09,NNW,335,0.0,0.0,96,0.00,-DZ,,0.11,WeatherDisplay:10.37,2013-03-18 17:59:00,
2013-03-18 14:04:00,34.1,32.8,30.08,SE,131,0.0,1.1,95,0.00,-DZ,,0.11,WeatherDisplay:10.37,2013-03-18 18:04:00,
2013-03-18 14:09:00,34.1,32.8,30.08,ESE,106,0.0,1.1,95,0.00,-DZ,,0.11,WeatherDisplay:10.37,2013-03-18 18:09:00,
2013-03-18 14:14:00,33.9,32.6,30.07,ENE,75,0.3,2.3,95,0.00,-DZ,,0.11,WeatherDisplay:10.37,2013-03-18 18:14:00,
2013-03-18 14:19:00,33.9,32.6,30.07,ENE,75,0.0,0.0,95,0.00,-DZ,,0.11,WeatherDisplay:10.37,2013-03-18 18:19:00,
2013-03-18 14:24:00,33.9,32.6,30.07,NNE,16,0.0,0.0,95,0.00,-DZ,,0.11,WeatherDisplay:10.37,2013-03-18 18:24:00,
2013-03-18 14:29:00,33.7,32.4,30.06,ESE,108,0.0,1.1,95,0.00,-DZ,,0.11,WeatherDisplay:10.37,2013-03-18 18:29:00,
2013-03-18 14:35:00,34.0,33.0,30.06,SSE,148,0.0,0.0,96,0.00,-DZ,,0.12,WeatherDisplay:10.37,2013-03-18 18:35:00,
2013-03-18 14:40:00,34.1,33.1,30.06,SSE,148,0.0,0.0,96,0.01,-DZ,,0.12,WeatherDisplay:10.37,2013-03-18 18:40:00,
2013-03-18 14:45:00,34.4,33.4,30.05,SSE,148,0.0,0.0,96,0.01,-DZ,,0.12,WeatherDisplay:10.37,2013-03-18 18:45:00,
2013-03-18 14:50:00,34.7,33.7,30.05,SSE,148,0.0,0.0,96,0.01,-DZ,,0.12,WeatherDisplay:10.37,2013-03-18 18:50:00,
2013-03-18 14:55:00,34.4,33.1,30.05,ESE,117,0.0,0.0,95,0.01,-DZ,,0.12,WeatherDisplay:10.37,2013-03-18 18:55:00,
2013-03-18 15:00:00,34.2,32.9,30.04,East,98,0.0,1.1,95,0.01,-DZ,,0.12,WeatherDisplay:10.37,2013-03-18 19:00:00,
2013-03-18 15:05:00,34.3,33.0,30.04,East,96,0.0,0.0,95,0.01,-DZ,,0.12,WeatherDisplay:10.37,2013-03-18 19:05:00,
2013-03-18 15:10:00,34.7,33.7,30.05,East,97,0.0,0.0,96,0.01,-DZ,,0.12,WeatherDisplay:10.37,2013-03-18 19:10:00,
2013-03-18 15:15:00,34.6,33.3,30.04,East,79,0.3,1.1,95,0.01,-DZ,,0.12,WeatherDisplay:10.37,2013-03-18 19:15:00,
2013-03-18 15:20:00,34.2,32.9,30.04,ENE,76,0.0,1.1,95,0.01,-DZ,,0.12,WeatherDisplay:10.37,2013-03-18 19:20:00,
2013-03-18 15:25:00,34.2,32.9,30.04,ENE,70,0.5,2.0,95,0.01,-DZ,,0.12,WeatherDisplay:10.37,2013-03-18 19:25:00,
2013-03-18 15:30:00,34.1,33.1,30.03,East,98,0.2,1.0,96,0.01,-DZ,,0.12,WeatherDisplay:10.37,2013-03-18 19:30:00,
2013-03-18 15:36:00,34.2,33.2,30.03,ENE,78,0.0,0.0,96,0.00,-DZ,,0.12,WeatherDisplay:10.37,2013-03-18 19:36:00,
2013-03-18 15:41:00,34.5,33.5,30.03,ENE,78,0.0,0.0,96,0.00,-DZ,,0.12,WeatherDisplay:10.37,2013-03-18 19:41:00,
2013-03-18 15:47:00,34.6,33.6,30.04,NW,321,0.0,0.0,96,0.00,-DZ,,0.12,WeatherDisplay:10.37,2013-03-18 19:47:00,
2013-03-18 15:52:00,34.5,33.2,30.05,NW,322,0.0,0.0,95,0.00,-DZ,,0.12,WeatherDisplay:10.37,2013-03-18 19:52:00,
2013-03-18 15:57:00,34.3,33.0,30.04,NW,322,0.0,0.0,95,0.00,-DZ,,0.12,WeatherDisplay:10.37,2013-03-18 19:57:00,
2013-03-18 16:02:00,34.2,32.9,30.03,SE,124,0.0,0.0,95,0.00,-DZ,,0.12,WeatherDisplay:10.37,2013-03-18 20:02:00,
2013-03-18 16:07:00,34.1,32.8,30.03,SE,124,0.0,0.0,95,0.00,-DZ,,0.12,WeatherDisplay:10.37,2013-03-18 20:07:00,
2013-03-18 16:12:00,34.2,32.9,30.03,SE,124,0.0,0.0,95,0.00,-DZ,,0.12,WeatherDisplay:10.37,2013-03-18 20:12:00,
2013-03-18 16:17:00,34.1,32.8,30.02,ESE,116,0.0,0.0,95,0.01,-DZ,,0.13,WeatherDisplay:10.37,2013-03-18 20:17:00,
2013-03-18 16:22:00,34.1,33.1,30.03,ESE,115,0.0,0.0,96,0.01,-DZ,,0.13,WeatherDisplay:10.37,2013-03-18 20:22:00,
2013-03-18 16:28:00,34.3,33.2,30.02,ESE,115,0.0,0.0,96,0.00,-DZ,,0.13,WeatherDisplay:10.37,2013-03-18 20:28:00,
2013-03-18 16:33:00,34.3,33.3,30.01,ESE,115,0.0,0.0,96,0.01,-DZ,,0.13,WeatherDisplay:10.37,2013-03-18 20:33:00,
2013-03-18 16:39:00,34.5,33.5,30.01,WSW,242,0.0,0.0,96,0.02,-DZ,,0.14,WeatherDisplay:10.37,2013-03-18 20:39:00,
2013-03-18 16:45:00,34.7,33.7,30.02,WNW,293,0.0,1.1,96,0.02,-DZ,,0.14,WeatherDisplay:10.37,2013-03-18 20:45:00,
2013-03-18 16:50:00,34.6,33.6,30.02,WNW,297,0.2,1.1,96,0.02,-DZ,,0.14,WeatherDisplay:10.37,2013-03-18 20:50:00,
2013-03-18 16:57:00,34.3,33.3,30.03,NW,316,0.1,1.1,96,0.02,-DZ,,0.14,WeatherDisplay:10.37,2013-03-18 20:57:00,
2013-03-18 17:02:00,34.3,33.0,30.03,North,3,0.0,0.0,95,0.02,-DZ,,0.14,WeatherDisplay:10.37,2013-03-18 21:02:00,
2013-03-18 17:07:00,34.2,33.2,30.02,North,4,0.0,0.0,96,0.03,-DZ,,0.15,WeatherDisplay:10.37,2013-03-18 21:07:00,
2013-03-18 17:12:00,34.4,33.4,30.03,North,3,0.0,0.0,96,0.04,-DZ,,0.16,WeatherDisplay:10.37,2013-03-18 21:12:00,
2013-03-18 17:17:00,34.3,33.3,30.02,SSE,148,0.0,1.1,96,0.05,-RA,,0.18,WeatherDisplay:10.37,2013-03-18 21:17:00,
2013-03-18 17:22:00,34.2,33.2,30.01,North,5,0.0,0.0,96,0.07,-RA,,0.20,WeatherDisplay:10.37,2013-03-18 21:22:00,
2013-03-18 17:27:00,34.1,33.1,30.02,ESE,103,0.0,1.1,96,0.07,-RA,,0.20,WeatherDisplay:10.37,2013-03-18 21:27:00,
2013-03-18 17:32:00,34.0,33.0,30.01,ESE,103,0.0,0.0,96,0.07,-RA,,0.20,WeatherDisplay:10.37,2013-03-18 21:32:00,
2013-03-18 17:37:00,34.0,33.0,30.01,ESE,103,0.0,0.0,96,0.07,-RA,,0.21,WeatherDisplay:10.37,2013-03-18 21:37:00,
2013-03-18 17:42:00,34.0,33.0,30.01,ESE,103,0.0,0.0,96,0.08,-RA,,0.22,WeatherDisplay:10.37,2013-03-18 21:42:00,
2013-03-18 17:47:00,33.8,32.8,30.00,ENE,63,0.0,1.1,96,0.10,-RA,,0.24,WeatherDisplay:10.37,2013-03-18 21:47:00,
2013-03-18 17:53:00,33.9,32.9,30.00,ENE,61,0.0,0.0,96,0.04,-RA,,0.26,WeatherDisplay:10.37,2013-03-18 21:53:00,
2013-03-18 17:58:00,33.9,32.9,30.00,ENE,61,0.0,0.0,96,0.02,-RA,,0.27,WeatherDisplay:10.37,2013-03-18 21:58:00,
2013-03-18 18:03:00,34.0,33.0,30.00,ENE,61,0.0,0.0,96,0.13,-RA,,0.27,WeatherDisplay:10.37,2013-03-18 22:03:00,
2013-03-18 18:10:00,33.9,32.9,29.99,ENE,62,0.0,1.0,96,0.13,-RA,,0.28,WeatherDisplay:10.37,2013-03-18 22:10:00,
2013-03-18 18:15:00,33.8,32.8,30.00,ENE,62,0.0,0.0,96,0.12,-RA,,0.28,WeatherDisplay:10.37,2013-03-18 22:15:00,
2013-03-18 18:20:00,33.8,32.8,30.01,WNW,283,0.1,2.3,96,0.09,-RA,,0.28,WeatherDisplay:10.37,2013-03-18 22:20:00,
2013-03-18 18:25:00,33.9,32.9,30.01,WNW,284,0.0,0.0,96,0.08,-RA,,0.28,WeatherDisplay:10.37,2013-03-18 22:25:00,
2013-03-18 18:30:00,33.8,32.8,30.00,East,80,0.0,0.0,96,0.08,-RA,,0.28,WeatherDisplay:10.37,2013-03-18 22:30:00,
2013-03-18 18:35:00,33.9,32.9,30.01,East,80,0.0,0.0,96,0.08,-RA,,0.28,WeatherDisplay:10.37,2013-03-18 22:35:00,
2013-03-18 18:40:00,33.9,32.9,30.00,East,80,0.0,0.0,96,0.07,-RA,,0.28,WeatherDisplay:10.37,2013-03-18 22:40:00,
2013-03-18 18:45:00,33.9,32.9,29.99,ESE,102,0.0,1.1,96,0.05,-RA,,0.28,WeatherDisplay:10.37,2013-03-18 22:45:00,
2013-03-18 18:50:00,33.9,32.9,30.00,SW,220,0.0,1.1,96,0.03,-RA,,0.28,WeatherDisplay:10.37,2013-03-18 22:50:00,
2013-03-18 18:55:00,33.8,32.8,30.00,SW,232,0.0,0.0,96,0.03,-RA,,0.29,WeatherDisplay:10.37,2013-03-18 22:55:00,
2013-03-18 19:00:00,33.8,32.8,30.00,SW,215,0.1,1.1,96,0.02,-RA,,0.29,WeatherDisplay:10.37,2013-03-18 23:00:00,
2013-03-18 19:05:00,33.8,32.8,29.99,SW,215,0.0,0.0,96,0.02,-RA,,0.29,WeatherDisplay:10.37,2013-03-18 23:05:00,
2013-03-18 19:10:00,33.8,32.8,29.99,SW,215,0.0,1.1,96,0.01,-RA,,0.29,WeatherDisplay:10.37,2013-03-18 23:10:00,
2013-03-18 19:15:00,33.8,32.8,29.99,SW,215,0.0,0.0,96,0.01,-RA,,0.29,WeatherDisplay:10.37,2013-03-18 23:15:00,
2013-03-18 19:20:00,33.8,33.0,29.98,SW,215,0.0,0.0,97,0.01,-RA,,0.29,WeatherDisplay:10.37,2013-03-18 23:20:00,
2013-03-18 19:25:00,33.8,33.0,29.98,SW,215,0.0,1.1,97,0.01,-RA,,0.29,WeatherDisplay:10.37,2013-03-18 23:25:00,
2013-03-18 19:30:00,33.9,33.1,29.97,SW,215,0.0,1.1,97,0.01,-RA,,0.29,WeatherDisplay:10.37,2013-03-18 23:30:00,
2013-03-18 19:35:00,33.8,33.0,29.98,SW,224,0.0,1.0,97,0.01,-RA,,0.29,WeatherDisplay:10.37,2013-03-18 23:35:00,
2013-03-18 19:40:00,33.9,33.1,29.98,SW,224,0.0,0.0,97,0.01,-RA,,0.29,WeatherDisplay:10.37,2013-03-18 23:40:00,
2013-03-18 19:45:00,33.9,33.1,29.98,SW,224,0.0,0.0,97,0.01,-RA,,0.29,WeatherDisplay:10.37,2013-03-18 23:45:00,
2013-03-18 19:50:00,33.9,33.1,29.97,SW,225,0.0,0.0,97,0.01,-RA,,0.29,WeatherDisplay:10.37,2013-03-18 23:50:00,
2013-03-18 19:55:00,34.0,33.2,29.97,NNW,328,0.0,1.0,97,0.01,-RA,,0.30,WeatherDisplay:10.37,2013-03-18 23:55:00,
2013-03-18 20:00:00,33.9,33.1,29.97,North,8,0.0,0.0,97,0.01,-RA,,0.30,WeatherDisplay:10.37,2013-03-19 00:00:00,
2013-03-18 20:06:00,33.8,33.0,29.97,North,11,0.0,0.0,97,0.01,-RA,,0.30,WeatherDisplay:10.37,2013-03-19 00:06:00,
2013-03-18 20:11:00,33.8,33.0,29.96,NNE,12,0.0,0.0,97,0.01,-RA,,0.30,WeatherDisplay:10.37,2013-03-19 00:11:00,
2013-03-18 20:16:00,33.9,33.1,29.96,NNE,12,0.0,0.0,97,0.01,-RA,,0.30,WeatherDisplay:10.37,2013-03-19 00:16:00,
2013-03-18 20:21:00,33.9,33.1,29.95,North,11,0.0,0.0,97,0.01,-RA,,0.30,WeatherDisplay:10.37,2013-03-19 00:21:00,
2013-03-18 20:26:00,33.9,33.1,29.95,North,11,0.0,0.0,97,0.01,-RA,,0.30,WeatherDisplay:10.37,2013-03-19 00:26:00,
2013-03-18 20:31:00,33.8,33.0,29.94,NNE,20,0.0,0.0,97,0.01,-RA,,0.30,WeatherDisplay:10.37,2013-03-19 00:31:00,
2013-03-18 20:37:00,33.7,32.9,29.93,NNE,20,0.0,0.0,97,0.01,-RA,,0.30,WeatherDisplay:10.37,2013-03-19 00:37:00,
2013-03-18 20:42:00,33.7,32.9,29.93,NNE,20,0.0,0.0,97,0.01,-RA,,0.30,WeatherDisplay:10.37,2013-03-19 00:42:00,
2013-03-18 20:47:00,33.8,33.0,29.92,NNE,20,0.0,0.0,97,0.01,OVC,,0.30,WeatherDisplay:10.37,2013-03-19 00:47:00,
2013-03-18 20:52:00,33.8,33.0,29.90,ESE,110,0.0,1.1,97,0.01,OVC,,0.30,WeatherDisplay:10.37,2013-03-19 00:52:00,
2013-03-18 20:57:00,33.8,33.0,29.88,ENE,72,0.2,1.1,97,0.00,OVC,,0.30,WeatherDisplay:10.37,2013-03-19 00:57:00,
2013-03-18 21:03:00,33.7,32.9,29.88,ENE,74,0.0,0.0,97,0.00,OVC,,0.30,WeatherDisplay:10.37,2013-03-19 01:03:00,
2013-03-18 21:08:00,33.6,32.8,29.88,ENE,63,1.0,0.0,97,0.00,OVC,,0.30,WeatherDisplay:10.37,2013-03-19 01:08:00,
2013-03-18 21:13:00,33.6,32.8,29.92,NW,321,3.0,0.0,97,0.00,OVC,,0.30,WeatherDisplay:10.37,2013-03-19 01:13:00,
2013-03-18 21:18:00,33.7,32.9,29.93,NNE,14,0.4,2.3,97,0.00,OVC,,0.30,WeatherDisplay:10.37,2013-03-19 01:18:00,
2013-03-18 21:23:00,33.8,33.0,29.92,NNE,23,0.0,1.1,97,0.00,OVC,,0.30,WeatherDisplay:10.37,2013-03-19 01:23:00,
2013-03-18 21:28:00,33.8,33.0,29.93,North,9,0.0,1.1,97,0.00,OVC,,0.30,WeatherDisplay:10.37,2013-03-19 01:28:00,
2013-03-18 21:33:00,33.8,33.0,29.92,WNW,283,0.2,1.1,97,0.00,OVC,,0.30,WeatherDisplay:10.37,2013-03-19 01:33:00,
2013-03-18 21:39:00,33.9,33.1,29.92,WNW,296,1.4,3.5,97,0.00,OVC,,0.30,WeatherDisplay:10.37,2013-03-19 01:39:00,
2013-03-18 21:44:00,33.9,33.1,29.92,NW,308,0.4,1.1,97,0.00,OVC,,0.30,WeatherDisplay:10.37,2013-03-19 01:44:00,
2013-03-18 21:49:00,34.0,33.2,29.91,NW,308,0.0,0.0,97,0.00,OVC,,0.30,WeatherDisplay:10.37,2013-03-19 01:49:00,
2013-03-18 21:54:00,33.8,33.0,29.90,ESE,111,0.1,1.1,97,0.00,OVC,,0.30,WeatherDisplay:10.37,2013-03-19 01:54:00,
2013-03-18 22:00:00,33.9,33.1,29.93,West,264,2.0,2.3,97,0.00,OVC,,0.30,WeatherDisplay:10.37,2013-03-19 02:00:00,
2013-03-18 22:05:00,33.9,33.1,29.91,ESE,107,1.1,2.3,97,0.00,OVC,,0.30,WeatherDisplay:10.37,2013-03-19 02:05:00,
2013-03-18 22:10:00,33.9,33.1,29.90,ESE,105,0.1,0.0,97,0.00,OVC,,0.30,WeatherDisplay:10.37,2013-03-19 02:10:00,
2013-03-18 22:15:00,33.9,33.1,29.91,NNE,27,0.0,1.1,97,0.00,OVC,,0.30,WeatherDisplay:10.37,2013-03-19 02:15:00,
2013-03-18 22:20:00,33.9,33.1,29.92,West,280,1.2,2.0,97,0.00,OVC,,0.30,WeatherDisplay:10.37,2013-03-19 02:20:00,
2013-03-18 22:25:00,33.9,33.1,29.92,WNW,291,0.1,1.0,97,0.00,OVC,,0.30,WeatherDisplay:10.37,2013-03-19 02:25:00,
2013-03-18 22:30:00,34.0,33.2,29.92,ESE,108,0.0,1.1,97,0.00,OVC,,0.30,WeatherDisplay:10.37,2013-03-19 02:30:00,
2013-03-18 22:35:00,33.9,33.1,29.91,ESE,108,0.0,0.0,97,0.00,OVC,,0.30,WeatherDisplay:10.37,2013-03-19 02:35:00,
2013-03-18 22:41:00,34.0,33.2,29.91,ENE,70,0.0,0.0,97,0.00,OVC,,0.30,WeatherDisplay:10.37,2013-03-19 02:41:00,
2013-03-18 22:46:00,34.0,33.2,29.90,ENE,72,0.0,0.0,97,0.00,OVC,,0.30,WeatherDisplay:10.37,2013-03-19 02:46:00,
2013-03-18 22:51:00,33.9,33.1,29.89,ENE,71,0.1,1.1,97,0.00,OVC,,0.30,WeatherDisplay:10.37,2013-03-19 02:51:00,
2013-03-18 22:56:00,33.9,33.1,29.89,West,273,0.5,1.1,97,0.00,OVC,,0.30,WeatherDisplay:10.37,2013-03-19 02:56:00,
2013-03-18 23:01:00,34.0,33.2,29.90,West,278,0.2,1.1,97,0.00,OVC,,0.30,WeatherDisplay:10.37,2013-03-19 03:01:00,
2013-03-18 23:07:00,34.0,33.2,29.89,West,273,0.0,0.0,97,0.00,OVC,,0.30,WeatherDisplay:10.37,2013-03-19 03:07:00,
2013-03-18 23:12:00,34.0,33.2,29.90,West,271,0.0,0.0,97,0.00,OVC,,0.30,WeatherDisplay:10.37,2013-03-19 03:12:00,
2013-03-18 23:18:00,34.0,33.2,29.89,West,271,0.0,0.0,97,0.00,OVC,,0.30,WeatherDisplay:10.37,2013-03-19 03:18:00,
2013-03-18 23:23:00,34.0,33.2,29.90,West,273,0.0,1.1,97,0.00,OVC,,0.30,WeatherDisplay:10.37,2013-03-19 03:23:00,
2013-03-18 23:28:00,34.0,33.2,29.90,West,273,0.0,0.0,97,0.00,OVC,,0.30,WeatherDisplay:10.37,2013-03-19 03:28:00,
2013-03-18 23:33:00,34.0,33.2,29.89,West,273,0.0,0.0,97,0.00,OVC,,0.30,WeatherDisplay:10.37,2013-03-19 03:33:00,
2013-03-18 23:38:00,34.0,33.2,29.89,West,273,0.0,1.1,97,0.00,OVC,,0.30,WeatherDisplay:10.37,2013-03-19 03:38:00,
2013-03-18 23:43:00,33.9,33.1,29.90,West,273,0.0,0.0,97,0.00,OVC,,0.30,WeatherDisplay:10.37,2013-03-19 03:43:00,
2013-03-18 23:48:00,34.0,33.2,29.90,West,273,0.0,1.1,97,0.00,OVC,,0.30,WeatherDisplay:10.37,2013-03-19 03:48:00,
2013-03-18 23:53:00,34.0,33.2,29.90,West,273,0.0,0.0,97,0.00,OVC,,0.30,WeatherDisplay:10.37,2013-03-19 03:53:00,
2013-03-18 23:58:00,34.0,33.2,29.90,West,273,0.0,0.0,97,0.00,OVC,,0.30,WeatherDisplay:10.37,2013-03-19 03:58:00,